sensor_id;sensor_type;location;lat;lon;timestamp;P1;durP1;ratioP1;P2;durP2;ratioP2
61460;SDS011;47325;50.506;4.472;2023-04-24T00:01:00;5.90;;;3.60;;
61460;SDS011;47325;50.506;4.472;2023-04-24T00:06:44;7.60;;;4.00;;
61460;SDS011;47325;50.506;4.472;2023-04-24T00:12:29;7.60;;;4.10;;
61460;SDS011;47325;50.506;4.472;2023-04-24T00:18:13;10.80;;;4.30;;
61460;SDS011;47325;50.506;4.472;2023-04-24T00:23:57;6.60;;;4.00;;
61460;SDS011;47325;50.506;4.472;2023-04-24T00:29:42;7.90;;;4.30;;
61460;SDS011;47325;50.506;4.472;2023-04-24T00:35:26;7.10;;;4.40;;
61460;SDS011;47325;50.506;4.472;2023-04-24T00:41:11;7.30;;;4.00;;
61460;SDS011;47325;50.506;4.472;2023-04-24T00:46:55;6.90;;;4.20;;
61460;SDS011;47325;50.506;4.472;2023-04-24T00:52:39;5.60;;;4.20;;
61460;SDS011;47325;50.506;4.472;2023-04-24T00:58:24;8.80;;;4.40;;
61460;SDS011;47325;50.506;4.472;2023-04-24T01:04:09;7.80;;;4.60;;
61460;SDS011;47325;50.506;4.472;2023-04-24T01:09:57;6.70;;;4.50;;
61460;SDS011;47325;50.506;4.472;2023-04-24T01:15:41;7.00;;;4.60;;
61460;SDS011;47325;50.506;4.472;2023-04-24T01:21:26;8.10;;;4.70;;
61460;SDS011;47325;50.506;4.472;2023-04-24T01:27:11;8.30;;;4.90;;
61460;SDS011;47325;50.506;4.472;2023-04-24T01:32:55;8.70;;;4.30;;
61460;SDS011;47325;50.506;4.472;2023-04-24T01:38:46;6.60;;;4.60;;
61460;SDS011;47325;50.506;4.472;2023-04-24T01:44:30;7.00;;;4.50;;
61460;SDS011;47325;50.506;4.472;2023-04-24T01:50:15;6.60;;;4.40;;
61460;SDS011;47325;50.506;4.472;2023-04-24T01:55:59;5.40;;;4.10;;
61460;SDS011;47325;50.506;4.472;2023-04-24T02:01:43;6.40;;;4.10;;
61460;SDS011;47325;50.506;4.472;2023-04-24T02:07:27;8.10;;;4.30;;
61460;SDS011;47325;50.506;4.472;2023-04-24T02:13:13;7.10;;;4.00;;
61460;SDS011;47325;50.506;4.472;2023-04-24T02:18:57;6.70;;;4.20;;
61460;SDS011;47325;50.506;4.472;2023-04-24T02:24:41;6.50;;;4.00;;
61460;SDS011;47325;50.506;4.472;2023-04-24T02:30:25;5.80;;;4.00;;
61460;SDS011;47325;50.506;4.472;2023-04-24T02:36:09;6.60;;;3.90;;
61460;SDS011;47325;50.506;4.472;2023-04-24T02:41:54;8.00;;;4.00;;
61460;SDS011;47325;50.506;4.472;2023-04-24T02:47:38;7.50;;;3.90;;
61460;SDS011;47325;50.506;4.472;2023-04-24T02:53:23;7.60;;;4.10;;
61460;SDS011;47325;50.506;4.472;2023-04-24T02:59:07;6.80;;;3.60;;
61460;SDS011;47325;50.506;4.472;2023-04-24T03:04:51;6.50;;;3.70;;
61460;SDS011;47325;50.506;4.472;2023-04-24T03:10:36;6.80;;;3.70;;
61460;SDS011;47325;50.506;4.472;2023-04-24T03:16:20;8.10;;;3.80;;
61460;SDS011;47325;50.506;4.472;2023-04-24T03:22:05;6.70;;;3.80;;
61460;SDS011;47325;50.506;4.472;2023-04-24T03:27:49;6.20;;;3.70;;
61460;SDS011;47325;50.506;4.472;2023-04-24T03:33:33;6.20;;;3.40;;
61460;SDS011;47325;50.506;4.472;2023-04-24T03:39:22;7.40;;;3.60;;
61460;SDS011;47325;50.506;4.472;2023-04-24T03:45:10;5.40;;;3.50;;
61460;SDS011;47325;50.506;4.472;2023-04-24T03:50:54;5.80;;;3.60;;
61460;SDS011;47325;50.506;4.472;2023-04-24T03:56:38;5.10;;;3.60;;
61460;SDS011;47325;50.506;4.472;2023-04-24T04:02:22;4.70;;;3.20;;
61460;SDS011;47325;50.506;4.472;2023-04-24T04:08:07;4.60;;;3.30;;
61460;SDS011;47325;50.506;4.472;2023-04-24T04:13:51;5.90;;;3.50;;
61460;SDS011;47325;50.506;4.472;2023-04-24T04:19:35;4.50;;;3.40;;
61460;SDS011;47325;50.506;4.472;2023-04-24T04:25:20;4.50;;;3.30;;
61460;SDS011;47325;50.506;4.472;2023-04-24T04:31:04;6.60;;;3.50;;
61460;SDS011;47325;50.506;4.472;2023-04-24T04:36:48;6.90;;;3.40;;
61460;SDS011;47325;50.506;4.472;2023-04-24T04:42:33;5.90;;;3.80;;
61460;SDS011;47325;50.506;4.472;2023-04-24T04:48:17;5.70;;;3.70;;
61460;SDS011;47325;50.506;4.472;2023-04-24T04:54:01;6.30;;;4.10;;
61460;SDS011;47325;50.506;4.472;2023-04-24T04:59:45;5.50;;;3.70;;
61460;SDS011;47325;50.506;4.472;2023-04-24T05:05:30;4.60;;;3.30;;
61460;SDS011;47325;50.506;4.472;2023-04-24T05:11:14;4.00;;;3.00;;
61460;SDS011;47325;50.506;4.472;2023-04-24T05:16:58;4.40;;;3.40;;
61460;SDS011;47325;50.506;4.472;2023-04-24T05:22:43;4.30;;;2.80;;
61460;SDS011;47325;50.506;4.472;2023-04-24T05:28:27;4.50;;;3.40;;
61460;SDS011;47325;50.506;4.472;2023-04-24T05:34:11;5.60;;;3.50;;
61460;SDS011;47325;50.506;4.472;2023-04-24T05:39:57;5.40;;;3.50;;
61460;SDS011;47325;50.506;4.472;2023-04-24T05:45:42;6.80;;;3.90;;
61460;SDS011;47325;50.506;4.472;2023-04-24T05:51:27;6.00;;;3.90;;
61460;SDS011;47325;50.506;4.472;2023-04-24T05:57:11;7.00;;;4.30;;
61460;SDS011;47325;50.506;4.472;2023-04-24T06:02:56;6.40;;;4.70;;
61460;SDS011;47325;50.506;4.472;2023-04-24T06:08:41;8.30;;;4.80;;
61460;SDS011;47325;50.506;4.472;2023-04-24T06:14:26;8.80;;;4.60;;
61460;SDS011;47325;50.506;4.472;2023-04-24T06:20:10;8.20;;;4.60;;
61460;SDS011;47325;50.506;4.472;2023-04-24T06:25:54;8.30;;;4.90;;
61460;SDS011;47325;50.506;4.472;2023-04-24T06:31:38;8.50;;;5.40;;
61460;SDS011;47325;50.506;4.472;2023-04-24T06:37:24;11.40;;;6.10;;
61460;SDS011;47325;50.506;4.472;2023-04-24T06:43:08;11.90;;;6.90;;
61460;SDS011;47325;50.506;4.472;2023-04-24T06:48:52;10.60;;;6.90;;
61460;SDS011;47325;50.506;4.472;2023-04-24T06:54:36;11.10;;;6.60;;
61460;SDS011;47325;50.506;4.472;2023-04-24T07:00:22;9.20;;;6.80;;
61460;SDS011;47325;50.506;4.472;2023-04-24T07:06:06;10.60;;;7.00;;
61460;SDS011;47325;50.506;4.472;2023-04-24T07:11:51;12.60;;;6.90;;
61460;SDS011;47325;50.506;4.472;2023-04-24T07:17:35;11.20;;;7.40;;
61460;SDS011;47325;50.506;4.472;2023-04-24T07:23:20;13.60;;;7.20;;
61460;SDS011;47325;50.506;4.472;2023-04-24T07:29:04;10.70;;;7.20;;
61460;SDS011;47325;50.506;4.472;2023-04-24T07:34:48;13.30;;;7.50;;
61460;SDS011;47325;50.506;4.472;2023-04-24T07:40:32;11.50;;;7.30;;
61460;SDS011;47325;50.506;4.472;2023-04-24T07:46:17;10.70;;;7.30;;
61460;SDS011;47325;50.506;4.472;2023-04-24T07:52:01;11.10;;;7.60;;
61460;SDS011;47325;50.506;4.472;2023-04-24T07:57:45;13.40;;;8.00;;
61460;SDS011;47325;50.506;4.472;2023-04-24T08:03:30;11.70;;;7.30;;
61460;SDS011;47325;50.506;4.472;2023-04-24T08:09:15;11.40;;;7.30;;
61460;SDS011;47325;50.506;4.472;2023-04-24T08:15:00;11.20;;;7.30;;
61460;SDS011;47325;50.506;4.472;2023-04-24T08:20:44;10.80;;;7.10;;
61460;SDS011;47325;50.506;4.472;2023-04-24T08:26:28;11.30;;;6.70;;
61460;SDS011;47325;50.506;4.472;2023-04-24T08:32:12;11.00;;;7.00;;
61460;SDS011;47325;50.506;4.472;2023-04-24T08:37:57;10.00;;;6.60;;
61460;SDS011;47325;50.506;4.472;2023-04-24T08:43:42;10.60;;;6.50;;
61460;SDS011;47325;50.506;4.472;2023-04-24T08:49:27;11.50;;;6.70;;
61460;SDS011;47325;50.506;4.472;2023-04-24T08:55:12;8.10;;;6.10;;
61460;SDS011;47325;50.506;4.472;2023-04-24T09:00:57;9.40;;;6.10;;
61460;SDS011;47325;50.506;4.472;2023-04-24T09:06:42;9.50;;;5.70;;
61460;SDS011;47325;50.506;4.472;2023-04-24T09:12:27;9.80;;;6.00;;
61460;SDS011;47325;50.506;4.472;2023-04-24T09:18:11;9.80;;;5.30;;
61460;SDS011;47325;50.506;4.472;2023-04-24T09:24:02;8.90;;;5.80;;
61460;SDS011;47325;50.506;4.472;2023-04-24T09:29:57;12.50;;;6.80;;
61460;SDS011;47325;50.506;4.472;2023-04-24T09:35:48;9.90;;;6.20;;
61460;SDS011;47325;50.506;4.472;2023-04-24T09:41:32;14.40;;;6.10;;
61460;SDS011;47325;50.506;4.472;2023-04-24T09:47:22;10.10;;;5.80;;
61460;SDS011;47325;50.506;4.472;2023-04-24T09:53:06;11.70;;;6.80;;
61460;SDS011;47325;50.506;4.472;2023-04-24T09:58:51;8.90;;;6.20;;
61460;SDS011;47325;50.506;4.472;2023-04-24T10:04:35;9.40;;;5.70;;
61460;SDS011;47325;50.506;4.472;2023-04-24T10:10:20;9.60;;;5.80;;
61460;SDS011;47325;50.506;4.472;2023-04-24T10:16:04;9.00;;;5.80;;
61460;SDS011;47325;50.506;4.472;2023-04-24T10:21:49;9.80;;;6.30;;
61460;SDS011;47325;50.506;4.472;2023-04-24T10:27:34;8.40;;;5.70;;
61460;SDS011;47325;50.506;4.472;2023-04-24T10:33:18;10.00;;;6.00;;
61460;SDS011;47325;50.506;4.472;2023-04-24T10:39:04;9.40;;;5.70;;
61460;SDS011;47325;50.506;4.472;2023-04-24T10:44:50;10.40;;;6.40;;
61460;SDS011;47325;50.506;4.472;2023-04-24T10:50:45;8.60;;;6.40;;
61460;SDS011;47325;50.506;4.472;2023-04-24T10:56:30;11.70;;;7.50;;
61460;SDS011;47325;50.506;4.472;2023-04-24T11:02:17;11.10;;;7.60;;
61460;SDS011;47325;50.506;4.472;2023-04-24T11:08:15;10.70;;;7.00;;
61460;SDS011;47325;50.506;4.472;2023-04-24T11:14:09;12.90;;;7.20;;
61460;SDS011;47325;50.506;4.472;2023-04-24T11:19:53;9.80;;;6.60;;
61460;SDS011;47325;50.506;4.472;2023-04-24T11:31:48;10.40;;;6.00;;
61460;SDS011;47325;50.506;4.472;2023-04-24T11:37:34;15.40;;;6.00;;
61460;SDS011;47325;50.506;4.472;2023-04-24T11:43:18;9.10;;;5.60;;
61460;SDS011;47325;50.506;4.472;2023-04-24T11:49:03;8.10;;;5.60;;
61460;SDS011;47325;50.506;4.472;2023-04-24T11:54:51;8.60;;;5.20;;
61460;SDS011;47325;50.506;4.472;2023-04-24T12:00:35;7.90;;;5.30;;
61460;SDS011;47325;50.506;4.472;2023-04-24T12:06:20;6.50;;;5.10;;
61460;SDS011;47325;50.506;4.472;2023-04-24T12:12:05;6.80;;;4.80;;
61460;SDS011;47325;50.506;4.472;2023-04-24T12:17:54;8.60;;;4.90;;
61460;SDS011;47325;50.506;4.472;2023-04-24T12:23:42;11.00;;;5.30;;
61460;SDS011;47325;50.506;4.472;2023-04-24T12:29:26;8.40;;;5.80;;
61460;SDS011;47325;50.506;4.472;2023-04-24T12:35:10;8.40;;;5.20;;
61460;SDS011;47325;50.506;4.472;2023-04-24T12:41:05;7.60;;;5.20;;
61460;SDS011;47325;50.506;4.472;2023-04-24T12:46:49;7.80;;;4.80;;
61460;SDS011;47325;50.506;4.472;2023-04-24T12:52:34;7.20;;;5.50;;
61460;SDS011;47325;50.506;4.472;2023-04-24T12:58:18;9.30;;;5.70;;
61460;SDS011;47325;50.506;4.472;2023-04-24T13:04:02;8.50;;;5.40;;
61460;SDS011;47325;50.506;4.472;2023-04-24T13:09:47;9.80;;;5.80;;
61460;SDS011;47325;50.506;4.472;2023-04-24T13:15:32;7.20;;;5.00;;
61460;SDS011;47325;50.506;4.472;2023-04-24T13:21:17;7.80;;;5.10;;
61460;SDS011;47325;50.506;4.472;2023-04-24T13:27:01;8.40;;;5.00;;
61460;SDS011;47325;50.506;4.472;2023-04-24T13:32:46;8.40;;;5.40;;
61460;SDS011;47325;50.506;4.472;2023-04-24T13:38:30;9.50;;;5.40;;
61460;SDS011;47325;50.506;4.472;2023-04-24T13:44:15;9.50;;;6.00;;
61460;SDS011;47325;50.506;4.472;2023-04-24T13:50:00;11.20;;;6.20;;
61460;SDS011;47325;50.506;4.472;2023-04-24T13:55:44;11.10;;;6.20;;
61460;SDS011;47325;50.506;4.472;2023-04-24T14:01:28;11.40;;;6.30;;
61460;SDS011;47325;50.506;4.472;2023-04-24T14:07:14;10.80;;;6.20;;
61460;SDS011;47325;50.506;4.472;2023-04-24T14:12:58;9.00;;;5.80;;
61460;SDS011;47325;50.506;4.472;2023-04-24T14:18:42;11.10;;;5.90;;
61460;SDS011;47325;50.506;4.472;2023-04-24T14:24:27;10.40;;;6.30;;
61460;SDS011;47325;50.506;4.472;2023-04-24T14:30:12;10.50;;;6.20;;
61460;SDS011;47325;50.506;4.472;2023-04-24T14:35:56;10.10;;;5.90;;
61460;SDS011;47325;50.506;4.472;2023-04-24T14:41:41;11.10;;;5.60;;
61460;SDS011;47325;50.506;4.472;2023-04-24T14:47:25;10.70;;;5.80;;
61460;SDS011;47325;50.506;4.472;2023-04-24T14:53:09;12.80;;;5.80;;
61460;SDS011;47325;50.506;4.472;2023-04-24T14:58:53;8.10;;;5.50;;
61460;SDS011;47325;50.506;4.472;2023-04-24T15:04:38;10.40;;;5.70;;
61460;SDS011;47325;50.506;4.472;2023-04-24T15:10:23;9.60;;;5.70;;
61460;SDS011;47325;50.506;4.472;2023-04-24T15:16:08;26.10;;;11.80;;
61460;SDS011;47325;50.506;4.472;2023-04-24T15:21:52;25.80;;;12.50;;
61460;SDS011;47325;50.506;4.472;2023-04-24T15:27:43;22.20;;;10.10;;
61460;SDS011;47325;50.506;4.472;2023-04-24T15:33:28;18.00;;;9.00;;
61460;SDS011;47325;50.506;4.472;2023-04-24T15:39:12;18.60;;;8.30;;
61460;SDS011;47325;50.506;4.472;2023-04-24T15:44:56;14.70;;;7.40;;
61460;SDS011;47325;50.506;4.472;2023-04-24T15:50:40;14.90;;;7.10;;
61460;SDS011;47325;50.506;4.472;2023-04-24T15:56:24;13.30;;;6.90;;
61460;SDS011;47325;50.506;4.472;2023-04-24T16:02:12;12.10;;;6.20;;
61460;SDS011;47325;50.506;4.472;2023-04-24T16:07:57;10.20;;;5.60;;
61460;SDS011;47325;50.506;4.472;2023-04-24T16:13:41;10.30;;;5.40;;
61460;SDS011;47325;50.506;4.472;2023-04-24T16:19:26;10.40;;;5.40;;
61460;SDS011;47325;50.506;4.472;2023-04-24T16:25:11;8.30;;;4.80;;
61460;SDS011;47325;50.506;4.472;2023-04-24T16:30:55;8.30;;;4.40;;
61460;SDS011;47325;50.506;4.472;2023-04-24T16:36:39;8.00;;;4.30;;
61460;SDS011;47325;50.506;4.472;2023-04-24T16:42:24;6.20;;;4.20;;
61460;SDS011;47325;50.506;4.472;2023-04-24T16:48:08;8.30;;;4.40;;
61460;SDS011;47325;50.506;4.472;2023-04-24T16:53:53;6.70;;;4.00;;
61460;SDS011;47325;50.506;4.472;2023-04-24T16:59:37;7.50;;;3.90;;
61460;SDS011;47325;50.506;4.472;2023-04-24T17:05:21;5.50;;;3.40;;
61460;SDS011;47325;50.506;4.472;2023-04-24T17:11:05;5.70;;;3.00;;
61460;SDS011;47325;50.506;4.472;2023-04-24T17:16:49;5.50;;;3.00;;
61460;SDS011;47325;50.506;4.472;2023-04-24T17:22:34;6.80;;;2.90;;
61460;SDS011;47325;50.506;4.472;2023-04-24T17:28:20;5.30;;;2.80;;
61460;SDS011;47325;50.506;4.472;2023-04-24T17:34:06;4.90;;;2.70;;
61460;SDS011;47325;50.506;4.472;2023-04-24T17:39:51;5.20;;;2.30;;
61460;SDS011;47325;50.506;4.472;2023-04-24T17:45:36;3.60;;;2.10;;
61460;SDS011;47325;50.506;4.472;2023-04-24T17:51:20;5.10;;;2.40;;
61460;SDS011;47325;50.506;4.472;2023-04-24T17:57:04;3.60;;;2.20;;
61460;SDS011;47325;50.506;4.472;2023-04-24T18:02:48;2.80;;;2.10;;
61460;SDS011;47325;50.506;4.472;2023-04-24T18:08:33;3.90;;;2.10;;
61460;SDS011;47325;50.506;4.472;2023-04-24T18:14:17;4.10;;;2.40;;
61460;SDS011;47325;50.506;4.472;2023-04-24T18:20:02;3.60;;;1.90;;
61460;SDS011;47325;50.506;4.472;2023-04-24T18:25:47;4.50;;;2.00;;
61460;SDS011;47325;50.506;4.472;2023-04-24T18:31:32;4.00;;;1.90;;
61460;SDS011;47325;50.506;4.472;2023-04-24T18:37:17;3.20;;;1.80;;
61460;SDS011;47325;50.506;4.472;2023-04-24T18:43:01;4.50;;;1.80;;
61460;SDS011;47325;50.506;4.472;2023-04-24T18:48:45;3.00;;;1.90;;
61460;SDS011;47325;50.506;4.472;2023-04-24T18:54:30;4.10;;;1.90;;
61460;SDS011;47325;50.506;4.472;2023-04-24T19:00:15;3.90;;;2.20;;
61460;SDS011;47325;50.506;4.472;2023-04-24T19:06:00;3.90;;;1.80;;
61460;SDS011;47325;50.506;4.472;2023-04-24T19:11:44;2.40;;;1.90;;
61460;SDS011;47325;50.506;4.472;2023-04-24T19:17:29;3.10;;;1.70;;
61460;SDS011;47325;50.506;4.472;2023-04-24T19:23:13;3.00;;;1.80;;
61460;SDS011;47325;50.506;4.472;2023-04-24T19:28:57;3.40;;;1.80;;
61460;SDS011;47325;50.506;4.472;2023-04-24T19:34:42;3.20;;;1.90;;
61460;SDS011;47325;50.506;4.472;2023-04-24T19:40:26;4.20;;;2.40;;
61460;SDS011;47325;50.506;4.472;2023-04-24T19:46:10;3.60;;;2.40;;
61460;SDS011;47325;50.506;4.472;2023-04-24T19:51:55;4.30;;;2.40;;
61460;SDS011;47325;50.506;4.472;2023-04-24T19:57:40;4.10;;;2.50;;
61460;SDS011;47325;50.506;4.472;2023-04-24T20:03:25;5.30;;;2.80;;
61460;SDS011;47325;50.506;4.472;2023-04-24T20:09:16;3.30;;;2.50;;
61460;SDS011;47325;50.506;4.472;2023-04-24T20:15:01;3.30;;;2.50;;
61460;SDS011;47325;50.506;4.472;2023-04-24T20:20:45;3.50;;;2.60;;
61460;SDS011;47325;50.506;4.472;2023-04-24T20:26:29;3.60;;;2.60;;
61460;SDS011;47325;50.506;4.472;2023-04-24T20:32:14;3.70;;;2.50;;
61460;SDS011;47325;50.506;4.472;2023-04-24T20:37:58;5.30;;;2.90;;
61460;SDS011;47325;50.506;4.472;2023-04-24T20:43:42;3.70;;;2.70;;
61460;SDS011;47325;50.506;4.472;2023-04-24T20:49:26;3.70;;;2.80;;
61460;SDS011;47325;50.506;4.472;2023-04-24T20:55:12;3.80;;;2.70;;
61460;SDS011;47325;50.506;4.472;2023-04-24T21:00:56;3.70;;;2.70;;
61460;SDS011;47325;50.506;4.472;2023-04-24T21:06:41;4.70;;;3.10;;
61460;SDS011;47325;50.506;4.472;2023-04-24T21:12:27;4.00;;;3.00;;
61460;SDS011;47325;50.506;4.472;2023-04-24T21:18:12;4.10;;;3.00;;
61460;SDS011;47325;50.506;4.472;2023-04-24T21:23:57;4.60;;;2.90;;
61460;SDS011;47325;50.506;4.472;2023-04-24T21:29:41;3.20;;;2.70;;
61460;SDS011;47325;50.506;4.472;2023-04-24T21:35:26;5.40;;;3.10;;
61460;SDS011;47325;50.506;4.472;2023-04-24T21:41:10;4.20;;;3.20;;
61460;SDS011;47325;50.506;4.472;2023-04-24T21:46:54;3.60;;;2.80;;
61460;SDS011;47325;50.506;4.472;2023-04-24T21:52:39;3.70;;;2.90;;
61460;SDS011;47325;50.506;4.472;2023-04-24T21:58:23;4.40;;;3.30;;
61460;SDS011;47325;50.506;4.472;2023-04-24T22:04:07;3.90;;;2.90;;
61460;SDS011;47325;50.506;4.472;2023-04-24T22:09:52;4.30;;;2.80;;
61460;SDS011;47325;50.506;4.472;2023-04-24T22:15:36;4.20;;;3.20;;
61460;SDS011;47325;50.506;4.472;2023-04-24T22:21:22;3.80;;;2.80;;
61460;SDS011;47325;50.506;4.472;2023-04-24T22:27:06;3.80;;;2.70;;
61460;SDS011;47325;50.506;4.472;2023-04-24T22:32:50;5.30;;;2.80;;
61460;SDS011;47325;50.506;4.472;2023-04-24T22:38:35;4.50;;;2.90;;
61460;SDS011;47325;50.506;4.472;2023-04-24T22:44:20;3.90;;;2.80;;
61460;SDS011;47325;50.506;4.472;2023-04-24T22:50:04;3.70;;;2.70;;
61460;SDS011;47325;50.506;4.472;2023-04-24T22:55:49;4.20;;;2.80;;
61460;SDS011;47325;50.506;4.472;2023-04-24T23:01:33;4.10;;;2.60;;
61460;SDS011;47325;50.506;4.472;2023-04-24T23:07:17;5.10;;;2.80;;
61460;SDS011;47325;50.506;4.472;2023-04-24T23:13:01;4.30;;;2.70;;
61460;SDS011;47325;50.506;4.472;2023-04-24T23:18:45;4.60;;;2.90;;
61460;SDS011;47325;50.506;4.472;2023-04-24T23:24:29;5.30;;;2.80;;
61460;SDS011;47325;50.506;4.472;2023-04-24T23:30:14;5.10;;;3.00;;
61460;SDS011;47325;50.506;4.472;2023-04-24T23:35:58;3.40;;;2.60;;
61460;SDS011;47325;50.506;4.472;2023-04-24T23:41:43;4.60;;;2.90;;
61460;SDS011;47325;50.506;4.472;2023-04-24T23:47:27;4.60;;;2.70;;
61460;SDS011;47325;50.506;4.472;2023-04-24T23:53:12;5.10;;;3.00;;
61460;SDS011;47325;50.506;4.472;2023-04-24T23:58:56;4.80;;;2.80;;
